createdAt,value
2019-04-26T00:01:15.977Z,95256.39
2019-04-26T00:03:47.541Z,95260.52
2019-04-26T00:06:18.751Z,95260.59
2019-04-26T00:08:53.792Z,95251.84
2019-04-26T00:11:32.637Z,95247.14
2019-04-26T00:14:21.078Z,95244.52
2019-04-26T00:16:55.764Z,95245.77
2019-04-26T00:19:26.476Z,95243.16
2019-04-26T00:21:57.144Z,95243.65
2019-04-26T00:24:28.559Z,95236.36
2019-04-26T00:27:00.175Z,95240.73
2019-04-26T00:29:30.988Z,95235.70
2019-04-26T00:32:01.552Z,95232.08
2019-04-26T00:34:31.972Z,95224.83
2019-04-26T00:37:02.682Z,95229.28
2019-04-26T00:39:32.970Z,95219.63
2019-04-26T00:42:04.529Z,95226.13
2019-04-26T00:44:35.203Z,95223.83
2019-04-26T00:47:07.017Z,95220.27
2019-04-26T00:49:44.016Z,95222.59
2019-04-26T00:52:11.143Z,95225.94
2019-04-26T00:54:42.852Z,95223.03
2019-04-26T00:57:15.906Z,95226.33
2019-04-26T00:59:47.446Z,95225.61
2019-04-26T01:02:23.865Z,95231.44
2019-04-26T01:04:54.599Z,95231.08
2019-04-26T01:07:26.119Z,95231.08
2019-04-26T01:09:56.459Z,95231.66
2019-04-26T01:12:27.171Z,95226.90
2019-04-26T01:14:57.591Z,95224.55
2019-04-26T01:17:27.994Z,95223.49
2019-04-26T01:19:59.186Z,95223.41
2019-04-26T01:22:33.142Z,95223.63
2019-04-26T01:25:05.534Z,95222.54
2019-04-26T01:27:37.941Z,95220.52
2019-04-26T01:30:11.819Z,95216.73
2019-04-26T01:32:44.346Z,95218.95
2019-04-26T01:35:15.334Z,95222.78
2019-04-26T01:37:47.532Z,95208.99
2019-04-26T01:40:21.770Z,95212.83
2019-04-26T01:43:00.516Z,95210.31
2019-04-26T01:45:44.996Z,95206.11
2019-04-26T01:48:40.523Z,95205.30
2019-04-26T01:51:14.391Z,95205.88
2019-04-26T01:53:47.075Z,95201.07
2019-04-26T01:56:21.824Z,95197.98
2019-04-26T01:58:52.235Z,95200.61
2019-04-26T02:01:54.194Z,95199.30
2019-04-26T02:04:28.227Z,95206.72
2019-04-26T02:06:58.555Z,95205.70
2019-04-26T02:09:30.560Z,95208.64
2019-04-26T02:12:02.446Z,95203.88
2019-04-26T02:14:33.367Z,95209.81
2019-04-26T02:17:04.905Z,95197.68
2019-04-26T02:19:35.505Z,95199.23
2019-04-26T02:22:22.292Z,95201.20
2019-04-26T02:24:53.608Z,95205.03
2019-04-26T02:27:31.053Z,95190.84
2019-04-26T02:30:03.157Z,95190.42
2019-04-26T02:32:35.295Z,95193.69
2019-04-26T02:35:06.525Z,95192.26
2019-04-26T02:37:38.329Z,95186.00
2019-04-26T02:40:13.228Z,95189.70
2019-04-26T02:42:45.302Z,95186.34
2019-04-26T02:46:20.390Z,95189.89
2019-04-26T02:49:31.247Z,95186.48
2019-04-26T02:52:27.890Z,95190.19
2019-04-26T02:55:08.341Z,95191.46
2019-04-26T02:57:45.389Z,95190.44
2019-04-26T03:00:17.755Z,95193.53
2019-04-26T03:02:56.509Z,95197.98
2019-04-26T03:05:31.724Z,95198.22
2019-04-26T03:08:08.706Z,95189.88
2019-04-26T03:10:45.614Z,95189.53
2019-04-26T03:13:32.193Z,95187.02
2019-04-26T03:16:15.359Z,95187.52
2019-04-26T03:18:58.060Z,95195.34
2019-04-26T03:21:40.602Z,95191.18
2019-04-26T03:24:19.956Z,95192.27
2019-04-26T03:27:04.604Z,95194.96
2019-04-26T03:29:45.406Z,95197.78
2019-04-26T03:32:48.302Z,95203.16
2019-04-26T03:35:28.884Z,95205.05
2019-04-26T03:38:20.190Z,95215.86
2019-04-26T03:41:28.526Z,95226.76
2019-04-26T03:44:18.382Z,95222.34
2019-04-26T03:47:01.540Z,95224.65
2019-04-26T03:49:45.875Z,95226.84
2019-04-26T03:52:45.622Z,95227.47
2019-04-26T03:56:05.057Z,95229.41
2019-04-26T03:59:15.859Z,95223.86
2019-04-26T04:01:59.871Z,95223.13
2019-04-26T04:04:39.584Z,95226.25
2019-04-26T04:07:13.470Z,95229.87
2019-04-26T04:09:48.880Z,95237.48
2019-04-26T04:12:45.790Z,95233.66
2019-04-26T04:15:22.431Z,95230.78
2019-04-26T04:17:59.411Z,95229.55
2019-04-26T04:20:52.907Z,95230.50
2019-04-26T04:23:49.943Z,95227.91
2019-04-26T04:26:32.354Z,95236.58
2019-04-26T04:29:46.510Z,95237.39
2019-04-26T04:32:20.654Z,95234.84
2019-04-26T04:34:54.846Z,95234.95
2019-04-26T04:37:29.545Z,95232.59
2019-04-26T04:40:13.306Z,95229.28
2019-04-26T04:43:31.048Z,95235.89
2019-04-26T04:46:51.926Z,95243.80
2019-04-26T04:49:34.863Z,95244.42
2019-04-26T04:52:29.116Z,95244.13
2019-04-26T04:55:08.110Z,95239.28
2019-04-26T04:57:52.378Z,95246.08
2019-04-26T05:00:55.392Z,95241.55
2019-04-26T05:03:42.357Z,95244.17
2019-04-26T05:06:42.822Z,95245.09
2019-04-26T05:09:23.569Z,95244.95
2019-04-26T05:12:27.754Z,95246.14
2019-04-26T05:15:39.282Z,95247.37
2019-04-26T05:18:26.503Z,95002.83
2019-04-26T05:21:40.743Z,95256.69
2019-04-26T05:24:19.277Z,95244.59
2019-04-26T05:27:31.368Z,95246.61
2019-04-26T05:30:38.139Z,95248.41
2019-04-26T05:33:33.501Z,95247.52
2019-04-26T05:36:18.773Z,95239.72
2019-04-26T05:39:03.334Z,95246.04
2019-04-26T05:42:05.511Z,95240.00
2019-04-26T05:45:12.779Z,95238.55
2019-04-26T05:48:05.202Z,95246.17
2019-04-26T05:51:12.784Z,95246.72
2019-04-26T05:54:26.796Z,95248.91
2019-04-26T05:57:20.511Z,95236.10
2019-04-26T06:00:23.758Z,95248.11
2019-04-26T06:03:58.393Z,95242.36
2019-04-26T06:06:40.701Z,95242.58
2019-04-26T06:09:38.591Z,95238.44
2019-04-26T06:12:25.269Z,95242.48
2019-04-26T06:15:44.436Z,95240.84
2019-04-26T06:18:46.929Z,95238.61
2019-04-26T06:21:27.146Z,95241.34
2019-04-26T06:24:18.447Z,95241.62
2019-04-26T06:27:19.148Z,95241.11
2019-04-26T06:29:58.770Z,95239.86
2019-04-26T06:32:56.434Z,95230.13
2019-04-26T06:35:24.906Z,95228.31
2019-04-26T06:39:04.402Z,95238.30
2019-04-26T06:42:05.211Z,95234.02
2019-04-26T06:45:30.378Z,95232.99
2019-04-26T06:48:16.472Z,95223.77
2019-04-26T06:50:54.185Z,95223.77
2019-04-26T06:53:42.524Z,95225.08
2019-04-26T06:56:51.968Z,95225.84
2019-04-26T06:59:49.729Z,95216.05
2019-04-26T07:02:27.587Z,95210.42
2019-04-26T07:05:17.782Z,95213.92
2019-04-26T07:08:09.197Z,95204.30
2019-04-26T07:11:23.996Z,95204.30
2019-04-26T07:14:33.096Z,95206.16
2019-04-26T07:17:10.572Z,95205.69
2019-04-26T07:20:26.615Z,95200.70
2019-04-26T07:23:37.747Z,95205.89
2019-04-26T07:26:57.931Z,95203.05
2019-04-26T07:30:05.329Z,95195.08
2019-04-26T07:33:04.249Z,95192.18
2019-04-26T07:36:03.751Z,95195.31
2019-04-26T07:39:27.243Z,95198.91
2019-04-26T07:43:03.697Z,95190.52
2019-04-26T07:46:12.853Z,95191.36
2019-04-26T07:48:59.675Z,95183.73
2019-04-26T07:52:14.243Z,95180.70
2019-04-26T07:55:17.660Z,95183.01
2019-04-26T07:58:31.904Z,95181.58
2019-04-26T08:01:47.456Z,95184.47
2019-04-26T08:04:23.632Z,95185.61
2019-04-26T08:07:20.046Z,95182.29
2019-04-26T08:10:00.151Z,95177.33
2019-04-26T08:12:33.355Z,95184.56
2019-04-26T08:15:29.043Z,95178.09
2019-04-26T08:18:13.755Z,95181.33
2019-04-26T08:20:56.006Z,95182.50
2019-04-26T08:23:41.663Z,95182.00
2019-04-26T08:26:15.519Z,95180.91
2019-04-26T08:28:48.167Z,95183.28
2019-04-26T08:31:24.309Z,95182.27
2019-04-26T08:34:02.775Z,95184.34
2019-04-26T08:36:40.293Z,95182.92
2019-04-26T08:39:19.066Z,95180.78
2019-04-26T08:41:51.827Z,95173.71
2019-04-26T08:44:42.149Z,95171.34
2019-04-26T08:47:32.167Z,95176.51
2019-04-26T08:50:11.032Z,95170.08
2019-04-26T08:52:43.666Z,95174.36
2019-04-26T08:55:16.776Z,95170.05
2019-04-26T08:57:50.797Z,95163.73
2019-04-26T09:00:39.775Z,95163.93
2019-04-26T09:03:23.176Z,95160.58
2019-04-26T09:06:07.996Z,95151.77
2019-04-26T09:08:43.494Z,95152.95
2019-04-26T09:11:24.066Z,95145.32
2019-04-26T09:13:50.832Z,95149.34
2019-04-26T09:16:21.976Z,95145.34
2019-04-26T09:18:55.077Z,95138.48
2019-04-26T09:21:31.588Z,95130.69
2019-04-26T09:24:21.052Z,95127.72
2019-04-26T09:27:08.560Z,95125.25
2019-04-26T09:30:04.798Z,95122.21
2019-04-26T09:32:38.080Z,95121.05
2019-04-26T09:35:11.265Z,95111.45
2019-04-26T09:37:41.126Z,95105.09
2019-04-26T09:40:20.986Z,95098.00
2019-04-26T09:43:03.248Z,95098.55
2019-04-26T09:45:52.625Z,95096.02
2019-04-26T09:48:36.731Z,95087.70
2019-04-26T09:51:07.781Z,95083.22
2019-04-26T09:53:39.555Z,95086.95
2019-04-26T09:56:10.266Z,95077.41
2019-04-26T09:58:40.648Z,95078.97
2019-04-26T10:01:11.093Z,95074.19
2019-04-26T10:03:41.617Z,95064.72
2019-04-26T10:06:12.345Z,95059.61
2019-04-26T10:08:47.016Z,95052.64
2019-04-26T10:11:18.557Z,95045.01
2019-04-26T10:13:57.495Z,95045.54
2019-04-26T10:16:49.694Z,95036.58
2019-04-26T10:19:31.923Z,95040.05
2019-04-26T10:22:03.313Z,95031.80
2019-04-26T10:24:33.725Z,95036.42
2019-04-26T10:27:04.983Z,95035.19
2019-04-26T10:29:35.313Z,95025.59
2019-04-26T10:32:05.892Z,95025.31
2019-04-26T10:34:36.762Z,95024.92
2019-04-26T10:37:07.988Z,95019.06
2019-04-26T10:39:38.593Z,95018.72
2019-04-26T10:42:09.309Z,95017.67
2019-04-26T10:44:41.098Z,95009.65
2019-04-26T10:47:11.661Z,95005.92
2019-04-26T10:49:47.782Z,95003.42
2019-04-26T10:52:34.151Z,94998.94
2019-04-26T10:55:33.541Z,94998.53
2019-04-26T10:58:36.221Z,94996.44
2019-04-26T11:01:11.145Z,94992.23
2019-04-26T11:03:41.922Z,94992.95
2019-04-26T11:06:12.362Z,94983.67
2019-04-26T11:08:42.685Z,94986.11
2019-04-26T11:11:14.410Z,94984.03
2019-04-26T11:13:44.930Z,94984.19
2019-04-26T11:16:15.455Z,94982.52
2019-04-26T11:18:45.792Z,94977.81
2019-04-26T11:21:20.379Z,94979.80
2019-04-26T11:23:49.993Z,94980.44
2019-04-26T11:26:20.404Z,94975.21
2019-04-26T11:28:55.842Z,94972.20
2019-04-26T11:31:27.815Z,94974.12
2019-04-26T11:34:05.083Z,94965.50
2019-04-26T11:36:30.212Z,94970.90
2019-04-26T11:39:01.338Z,94972.16
2019-04-26T11:41:37.536Z,94962.27
2019-04-26T11:44:07.017Z,94961.89
2019-04-26T11:46:44.633Z,94958.18
2019-04-26T11:49:09.827Z,94964.56
2019-04-26T11:51:40.304Z,94962.24
2019-04-26T11:54:10.806Z,94961.09
2019-04-26T11:56:41.116Z,94960.89
2019-04-26T11:59:11.869Z,94953.49
2019-04-26T12:01:42.628Z,94950.29
2019-04-26T12:04:31.891Z,94942.86
2019-04-26T12:07:09.194Z,94935.38
2019-04-26T12:09:42.504Z,94933.20
2019-04-26T12:12:14.233Z,94923.55
2019-04-26T12:14:44.939Z,94920.63
2019-04-26T12:17:15.731Z,94919.20
2019-04-26T12:19:48.209Z,94922.32
2019-04-26T12:22:18.078Z,94912.36
2019-04-26T12:24:48.819Z,94915.58
2019-04-26T12:27:19.293Z,94905.44
2019-04-26T12:29:49.883Z,94905.50
2019-04-26T12:32:20.493Z,94900.38
2019-04-26T12:34:51.042Z,94897.84
2019-04-26T12:37:21.519Z,94889.34
2019-04-26T12:39:52.147Z,94893.42
2019-04-26T12:42:24.057Z,94891.33
2019-04-26T12:45:01.968Z,94882.67
2019-04-26T12:47:40.546Z,94875.22
2019-04-26T12:50:11.305Z,94878.89
2019-04-26T12:52:41.655Z,94873.33
2019-04-26T12:55:13.894Z,94868.72
2019-04-26T12:57:44.262Z,94863.28
2019-04-26T13:00:16.961Z,94860.77
2019-04-26T13:02:50.211Z,94867.75
2019-04-26T13:05:20.611Z,94860.73
2019-04-26T13:07:53.552Z,94854.19
2019-04-26T13:10:46.151Z,94852.53
2019-04-26T13:13:30.115Z,94851.89
2019-04-26T13:16:06.709Z,94849.68
2019-04-26T13:18:37.277Z,94840.41
2019-04-26T13:21:07.583Z,94846.74
2019-04-26T13:23:37.925Z,94844.45
2019-04-26T13:26:08.347Z,94839.39
2019-04-26T13:28:39.103Z,94840.78
2019-04-26T13:31:09.962Z,94840.56
2019-04-26T13:33:40.304Z,94832.55
2019-04-26T13:36:10.781Z,94832.33
2019-04-26T13:38:43.373Z,94824.98
2019-04-26T13:41:13.199Z,94819.27
2019-04-26T13:43:44.822Z,94820.09
2019-04-26T13:46:23.718Z,94821.59
2019-04-26T13:49:05.083Z,94816.66
2019-04-26T13:51:35.442Z,94820.73
2019-04-26T13:54:06.390Z,94821.95
2019-04-26T13:56:37.610Z,94817.45
2019-04-26T13:59:08.313Z,94816.28
2019-04-26T14:01:38.709Z,94813.16
2019-04-26T14:04:10.142Z,94813.79
2019-04-26T14:06:40.968Z,94810.30
2019-04-26T14:09:13.860Z,94807.92
2019-04-26T14:11:44.195Z,94804.11
2019-04-26T14:14:14.837Z,94804.52
2019-04-26T14:16:45.218Z,94800.66
2019-04-26T14:19:16.901Z,94796.85
2019-04-26T14:21:47.579Z,94800.34
2019-04-26T14:24:41.686Z,94800.23
2019-04-26T14:27:17.776Z,94794.22
2019-04-26T14:29:48.527Z,94801.02
2019-04-26T14:32:23.001Z,94792.05
2019-04-26T14:34:51.324Z,94793.15
2019-04-26T14:37:21.864Z,94794.30
2019-04-26T14:39:55.361Z,94792.54
2019-04-26T14:42:33.732Z,94795.39
2019-04-26T14:44:56.460Z,94794.87
2019-04-26T14:47:30.392Z,94787.48
2019-04-26T14:49:59.390Z,94787.28
2019-04-26T14:52:29.732Z,94780.33
2019-04-26T14:55:00.203Z,94783.59
2019-04-26T14:57:31.676Z,94786.80
2019-04-26T15:00:02.704Z,94780.75
2019-04-26T15:03:03.260Z,94782.08
2019-04-26T15:05:43.166Z,94776.89
2019-04-26T15:08:13.809Z,94778.96
2019-04-26T15:10:48.569Z,94772.81
2019-04-26T15:13:20.661Z,94771.66
2019-04-26T15:15:48.297Z,94778.77
2019-04-26T15:18:18.692Z,94773.22
2019-04-26T15:20:49.047Z,94774.88
2019-04-26T15:23:23.937Z,94771.84
2019-04-26T15:25:52.818Z,94772.30
2019-04-26T15:28:23.354Z,94768.81
2019-04-26T15:30:53.990Z,94764.44
2019-04-26T15:33:24.565Z,94771.67
2019-04-26T15:35:54.915Z,94761.94
2019-04-26T15:38:25.609Z,94763.64
2019-04-26T15:41:17.761Z,94761.36
2019-04-26T15:44:13.600Z,94756.08
2019-04-26T15:47:13.635Z,94756.66
2019-04-26T15:50:09.851Z,94757.55
2019-04-26T15:52:38.629Z,94759.06
2019-04-26T15:55:09.561Z,94757.05
2019-04-26T15:57:39.859Z,94755.56
2019-04-26T16:00:12.534Z,94756.08
2019-04-26T16:02:43.364Z,94763.19
2019-04-26T16:05:16.536Z,94755.02
2019-04-26T16:07:45.891Z,94754.07
2019-04-26T16:10:16.556Z,94754.56
2019-04-26T16:12:47.322Z,94745.23
2019-04-26T16:15:17.759Z,94746.20
2019-04-26T16:17:48.161Z,94746.79
2019-04-26T16:20:18.681Z,94745.31
2019-04-26T16:22:49.383Z,94745.36
2019-04-26T16:25:19.687Z,94739.03
2019-04-26T16:27:52.320Z,94743.73
2019-04-26T16:30:39.941Z,94742.81
2019-04-26T16:33:33.466Z,94743.14
2019-04-26T16:36:02.680Z,94741.50
2019-04-26T16:38:36.948Z,94745.09
2019-04-26T16:41:07.913Z,94737.59
2019-04-26T16:43:44.637Z,94733.53
2019-04-26T16:46:14.746Z,94735.77
2019-04-26T16:48:44.475Z,94739.19
2019-04-26T16:51:14.611Z,94733.20
2019-04-26T16:54:02.804Z,94737.42
2019-04-26T16:56:25.851Z,94736.98
2019-04-26T16:58:53.603Z,94733.77
2019-04-26T17:01:23.583Z,94734.23
2019-04-26T17:03:54.419Z,94729.91
2019-04-26T17:06:24.715Z,94734.20
2019-04-26T17:09:01.161Z,94732.95
2019-04-26T17:11:30.227Z,94729.83
2019-04-26T17:14:04.806Z,94735.05
2019-04-26T17:16:34.693Z,94727.05
2019-04-26T17:19:04.704Z,94723.11
2019-04-26T17:21:41.146Z,94728.98
2019-04-26T17:24:26.088Z,94725.33
2019-04-26T17:27:05.396Z,94727.69
2019-04-26T17:29:33.856Z,94720.77
2019-04-26T17:32:09.077Z,94737.14
2019-04-26T17:34:40.327Z,94733.81
2019-04-26T17:37:12.738Z,94741.31
2019-04-26T17:39:41.918Z,94737.48
2019-04-26T17:42:12.270Z,94753.41
2019-04-26T17:44:42.543Z,94745.05
2019-04-26T17:47:12.925Z,94750.77
2019-04-26T17:49:44.001Z,94751.11
2019-04-26T17:52:15.083Z,94753.05
2019-04-26T17:54:48.983Z,94757.04
2019-04-26T17:57:31.300Z,94760.92
2019-04-26T17:59:51.522Z,94769.19
2019-04-26T18:02:40.224Z,94780.14
2019-04-26T18:05:00.407Z,94766.85
2019-04-26T18:07:40.263Z,94771.00
2019-04-26T18:10:02.373Z,94773.48
2019-04-26T18:12:32.617Z,94782.41
2019-04-26T18:15:06.151Z,94787.15
2019-04-26T18:18:09.663Z,94788.03
2019-04-26T18:20:58.513Z,94790.47
2019-04-26T18:23:30.403Z,94787.66
2019-04-26T18:26:00.970Z,94798.00
2019-04-26T18:28:31.721Z,94794.69
2019-04-26T18:31:03.624Z,94796.61
2019-04-26T18:33:34.585Z,94803.56
2019-04-26T18:36:05.317Z,94812.30
2019-04-26T18:38:35.915Z,94814.17
2019-04-26T18:41:06.455Z,94808.39
2019-04-26T18:43:37.111Z,94811.50
2019-04-26T18:46:13.961Z,94810.15
2019-04-26T18:48:44.353Z,94817.75
2019-04-26T18:51:14.694Z,94817.33
2019-04-26T18:54:14.579Z,94818.72
2019-04-26T18:56:49.932Z,94819.65
2019-04-26T18:59:23.333Z,94823.06
2019-04-26T19:01:54.756Z,94824.67
2019-04-26T19:04:25.266Z,94831.23
2019-04-26T19:06:55.985Z,94838.20
2019-04-26T19:09:28.096Z,94838.28
2019-04-26T19:11:58.603Z,94841.91
2019-04-26T19:14:49.877Z,94829.39
2019-04-26T19:17:30.109Z,94832.08
2019-04-26T19:20:22.808Z,94832.80
2019-04-26T19:22:58.203Z,94832.70
2019-04-26T19:25:29.830Z,94843.20
2019-04-26T19:28:05.842Z,94835.28
2019-04-26T19:30:33.449Z,94840.27
2019-04-26T19:33:03.836Z,94831.77
2019-04-26T19:35:39.382Z,94831.50
2019-04-26T19:38:13.391Z,94829.95
2019-04-26T19:40:46.412Z,94835.33
2019-04-26T19:43:13.108Z,94835.27
2019-04-26T19:46:09.549Z,94835.06
2019-04-26T19:49:00.015Z,94836.61
2019-04-26T19:51:49.154Z,94834.84
2019-04-26T19:54:37.995Z,94828.63
2019-04-26T19:57:09.311Z,94826.59
2019-04-26T19:59:39.930Z,94821.87
2019-04-26T20:02:10.240Z,94821.87
2019-04-26T20:04:41.926Z,94816.66
2019-04-26T20:07:12.423Z,94816.66
2019-04-26T20:09:43.820Z,94820.09
2019-04-26T20:12:14.243Z,94820.09
2019-04-26T20:14:50.707Z,94822.27
2019-04-26T20:17:19.746Z,94823.47
2019-04-26T20:19:53.914Z,94821.09
2019-04-26T20:22:28.240Z,94825.51
2019-04-26T20:24:57.464Z,94828.64
2019-04-26T20:27:27.984Z,94828.64
2019-04-26T20:29:58.779Z,94829.50
2019-04-26T20:32:37.365Z,94828.26
2019-04-26T20:35:20.013Z,94832.91
2019-04-26T20:37:52.070Z,94830.11
2019-04-26T20:40:25.520Z,94826.59
2019-04-26T20:43:01.973Z,94834.76
2019-04-26T20:45:38.915Z,94833.37
2019-04-26T20:47:59.216Z,94831.86
2019-04-26T20:50:33.456Z,94825.36
2019-04-26T20:53:02.340Z,94826.41
2019-04-26T20:55:34.629Z,94817.41
2019-04-26T20:58:08.500Z,94830.69
2019-04-26T21:00:37.812Z,94823.34
2019-04-26T21:03:21.029Z,94823.98
2019-04-26T21:05:46.063Z,94828.14
2019-04-26T21:08:14.004Z,94829.25
2019-04-26T21:10:44.351Z,94828.20
2019-04-26T21:13:14.950Z,94831.34
2019-04-26T21:15:56.082Z,94830.45
2019-04-26T21:18:17.341Z,94831.47
2019-04-26T21:20:48.190Z,94836.09
2019-04-26T21:23:18.871Z,94844.69
2019-04-26T21:26:17.311Z,94841.34
2019-04-26T21:28:54.282Z,94847.22
2019-04-26T21:31:45.472Z,94844.78
2019-04-26T21:34:25.675Z,94836.02
2019-04-26T21:37:11.434Z,94842.02
2019-04-26T21:39:54.165Z,94844.79
2019-04-26T21:42:25.850Z,94839.83
2019-04-26T21:44:56.395Z,94841.45
2019-04-26T21:47:27.550Z,94846.15
2019-04-26T21:50:00.766Z,94842.01
2019-04-26T21:52:34.203Z,94846.02
2019-04-26T21:55:06.518Z,94847.89
2019-04-26T21:57:37.154Z,94844.17
2019-04-26T22:00:18.069Z,94842.09
2019-04-26T22:02:50.156Z,94846.59
2019-04-26T22:05:20.443Z,94846.84
2019-04-26T22:07:51.089Z,94847.60
2019-04-26T22:10:28.127Z,94848.16
2019-04-26T22:13:01.490Z,94848.39
2019-04-26T22:15:54.509Z,94855.75
2019-04-26T22:18:30.018Z,94856.28
2019-04-26T22:21:07.023Z,94858.63
2019-04-26T22:23:47.621Z,94853.14
2019-04-26T22:26:19.274Z,94853.70
2019-04-26T22:28:49.791Z,94852.05
2019-04-26T22:31:20.356Z,94845.48
2019-04-26T22:33:50.685Z,94851.00
2019-04-26T22:36:23.247Z,94844.42
2019-04-26T22:38:55.646Z,94836.80
2019-04-26T22:41:28.510Z,94847.27
2019-04-26T22:44:05.056Z,94843.56
2019-04-26T22:47:03.599Z,94839.61
2019-04-26T22:49:34.989Z,94838.58
2019-04-26T22:52:06.445Z,94838.56
2019-04-26T22:54:37.643Z,94837.50
2019-04-26T22:57:13.152Z,94829.88
2019-04-26T22:59:43.272Z,94834.10
2019-04-26T23:02:18.430Z,94832.74
2019-04-26T23:04:49.033Z,94836.70
2019-04-26T23:07:23.226Z,94829.11
2019-04-26T23:09:55.126Z,94830.41
2019-04-26T23:12:44.020Z,94827.52
2019-04-26T23:15:39.761Z,94824.94
2019-04-26T23:18:27.864Z,94821.49
2019-04-26T23:21:07.738Z,94819.17
2019-04-26T23:23:40.982Z,94819.90
2019-04-26T23:26:10.033Z,94820.68
2019-04-26T23:28:40.676Z,94816.70
2019-04-26T23:31:11.101Z,94817.80
2019-04-26T23:33:42.924Z,94814.39
2019-04-26T23:36:13.846Z,94817.28
2019-04-26T23:38:45.844Z,94815.17
2019-04-26T23:41:16.187Z,94809.55
2019-04-26T23:43:46.683Z,94811.36
2019-04-26T23:46:18.877Z,94806.12
2019-04-26T23:48:50.105Z,94797.18
2019-04-26T23:51:20.782Z,94793.00
2019-04-26T23:53:56.341Z,94796.69
2019-04-26T23:56:25.282Z,94797.39
2019-04-26T23:58:55.680Z,94784.83
